RJAA/NRT METAR and TAF weather

Enter ICAO airport designator
Station Type Date Time Source
RJAA METAR 2019/04/23 04:00 UTC NOAA

RJAA 230400Z 13012KT 9999 FEW040 BKN/// 21/11 Q1020 NOSIG


Station Type Date Time Source
RJAA Decoded METAR 2019/04/23 04:00 UTC NOAA

New Tokyo Inter-National Airport, Japan (RJAA) 35-46N 140-23E 44M
Apr 23, 2019 - 12:00 AM EDT / 2019.04.23 0400 UTC
Wind: from the SE (130 degrees) at 14 MPH (12 KT):0
Visibility: greater than 7 mile(s):0
Sky conditions: mostly cloudy
Temperature: 69 F (21 C)
Dew Point: 51 F (11 C)
Relative Humidity: 52%
Pressure (altimeter): 30.12 in. Hg (1020 hPa)
ob: RJAA 230400Z 13012KT 9999 FEW040 BKN/// 21/11 Q1020 NOSIG
cycle: 4

Station Type Date Time Source
RJAA TAF 2019/04/23 00:39 UTC NOAA

TAF TAF
AMD RJAA 230034Z 2300/2406 14010KT 9999 FEW030
BECMG 2312/2315 01004KT
TEMPO 2318/2321 2000 BR
BECMG 2400/2403 16010KT

Example: see airport list